Time;durP1;ratioP1;P1;durP2;ratioP2;P2;SDS_P1;SDS_P2;PMS_P1;PMS_P2;Temp;Humidity;BMP_temperature;BMP_pressure;BME280_temperature;BME280_humidity;BME280_pressure;Samples;Min_cycle;Max_cycle;Signal;HPM_P1;HPM_P2
2023/12/07 13:07:53;;;;;;;26.77;19.07;;;;;;;2.96;100.00;101479.50;5263089;28;20971;-76
2023/12/07 13:10:24;;;;;;;22.03;17.40;;;;;;;3.06;100.00;101490.53;5258351;28;20044;-74
2023/12/07 13:12:56;;;;;;;26.33;17.83;;;;;;;3.09;100.00;101487.88;5258310;28;20032;-74
2023/12/07 13:15:29;;;;;;;20.40;17.43;;;;;;;3.03;100.00;101477.66;5270450;28;20021;-75
2023/12/07 13:18:00;;;;;;;19.03;17.00;;;;;;;3.01;100.00;101476.81;5268754;28;20124;-73
2023/12/07 13:20:32;;;;;;;19.57;15.63;;;;;;;2.85;100.00;101464.16;5268571;28;20107;-73
2023/12/07 13:23:04;;;;;;;21.10;16.20;;;;;;;2.96;100.00;101473.47;5269898;28;20047;-74
2023/12/07 13:25:36;;;;;;;20.07;16.23;;;;;;;2.95;100.00;101458.84;5268295;28;20033;-74
2023/12/07 13:28:08;;;;;;;20.33;18.13;;;;;;;2.95;100.00;101462.25;5273253;28;20044;-73
2023/12/07 13:30:39;;;;;;;23.63;18.83;;;;;;;2.93;100.00;101460.59;5268240;28;20032;-75
2023/12/07 13:33:11;;;;;;;22.73;17.13;;;;;;;2.90;100.00;101467.53;5269192;28;20384;-72
2023/12/07 13:35:42;;;;;;;27.93;20.33;;;;;;;2.88;100.00;101464.09;5268090;28;20112;-74
2023/12/07 13:38:13;;;;;;;25.93;20.03;;;;;;;2.86;100.00;101473.63;5268787;28;20021;-73
2023/12/07 13:40:45;;;;;;;28.50;20.87;;;;;;;2.83;100.00;101460.75;5269116;28;20035;-75
2023/12/07 13:43:16;;;;;;;30.20;21.67;;;;;;;2.73;100.00;101448.84;5265826;28;20037;-74
2023/12/07 13:45:47;;;;;;;31.20;21.10;;;;;;;2.87;100.00;101452.06;5269106;28;20043;-74
2023/12/07 13:48:19;;;;;;;30.50;21.77;;;;;;;2.79;100.00;101451.34;5267115;28;20033;-74
2023/12/07 13:50:50;;;;;;;29.83;20.63;;;;;;;2.68;100.00;101433.41;5266918;28;20021;-73
2023/12/07 13:53:22;;;;;;;26.87;21.13;;;;;;;2.65;100.00;101423.97;5269642;28;20106;-74
2023/12/07 13:55:53;;;;;;;30.43;21.67;;;;;;;2.69;100.00;101418.75;5269998;28;20098;-74
2023/12/07 13:58:24;;;;;;;29.53;22.20;;;;;;;2.72;100.00;101427.31;5265492;28;20031;-73
2023/12/07 14:00:56;;;;;;;30.63;23.33;;;;;;;2.71;100.00;101409.22;5264430;28;20032;-73
2023/12/07 14:03:27;;;;;;;31.43;21.10;;;;;;;2.73;100.00;101408.31;5261051;28;20309;-74
2023/12/07 14:05:58;;;;;;;25.50;20.37;;;;;;;2.71;100.00;101396.28;5257237;28;20075;-73
2023/12/07 14:08:31;;;;;;;24.43;19.33;;;;;;;2.62;100.00;101400.75;5272522;28;20032;-74
2023/12/07 14:11:02;;;;;;;35.47;24.70;;;;;;;2.65;100.00;101400.69;5263000;28;20055;-74
2023/12/07 14:13:33;;;;;;;28.23;21.87;;;;;;;2.65;100.00;101400.69;5274278;28;20028;-74
2023/12/07 14:16:05;;;;;;;24.37;20.37;;;;;;;2.71;100.00;101397.16;5265295;28;20025;-73
2023/12/07 14:18:36;;;;;;;26.87;20.17;;;;;;;2.69;100.00;101403.25;5261351;28;20713;-74
2023/12/07 14:21:08;;;;;;;24.93;19.90;;;;;;;2.65;100.00;101385.16;5256332;28;20033;-73
2023/12/07 14:23:40;;;;;;;24.77;19.87;;;;;;;2.62;100.00;101380.06;5259003;28;20045;-74
2023/12/07 14:26:11;;;;;;;24.37;19.23;;;;;;;2.76;100.00;101373.78;5254143;28;20025;-73
2023/12/07 14:28:42;;;;;;;24.33;19.70;;;;;;;2.71;100.00;101373.00;5255720;28;20039;-72
2023/12/07 14:31:16;;;;;;;24.43;20.30;;;;;;;2.68;100.00;101370.47;5255098;28;20025;-73
2023/12/07 14:33:48;;;;;;;25.67;19.67;;;;;;;2.70;100.00;101373.91;5250732;28;20498;-73
2023/12/07 14:36:20;;;;;;;28.93;21.70;;;;;;;2.62;100.00;101361.94;5248818;28;20033;-73
2023/12/07 14:38:51;;;;;;;30.03;20.70;;;;;;;2.57;100.00;101352.56;5252873;28;20037;-73
2023/12/07 14:41:22;;;;;;;28.30;21.57;;;;;;;2.42;100.00;101334.72;5256678;28;20017;-74
2023/12/07 14:43:54;;;;;;;30.37;20.33;;;;;;;2.51;100.00;101348.38;5250144;28;20175;-73
2023/12/07 14:46:26;;;;;;;27.37;20.80;;;;;;;2.45;100.00;101348.47;5255571;28;20051;-72
2023/12/07 14:48:57;;;;;;;27.37;21.37;;;;;;;2.45;100.00;101361.38;5252451;28;20020;-73
2023/12/07 14:51:28;;;;;;;24.87;18.20;;;;;;;2.46;100.00;101356.19;5253225;28;20059;-73
2023/12/07 14:54:00;;;;;;;23.97;20.20;;;;;;;2.44;100.00;101349.34;5255401;28;20033;-72
2023/12/07 14:56:33;;;;;;;27.97;20.53;;;;;;;2.35;100.00;101351.22;5253795;28;20028;-72
2023/12/07 14:59:06;;;;;;;24.70;20.73;;;;;;;2.38;100.00;101333.06;5255610;28;20040;-72
2023/12/07 15:01:43;;;;;;;26.07;19.50;;;;;;;2.46;100.00;101355.34;5252350;28;20078;-70
2023/12/07 15:04:15;;;;;;;22.40;18.50;;;;;;;2.46;100.00;101353.59;5244392;28;20108;-71
2023/12/07 15:06:46;;;;;;;26.37;18.80;;;;;;;2.40;100.00;101339.06;5248924;28;20542;-70
2023/12/07 15:09:19;;;;;;;29.77;19.97;;;;;;;2.35;100.00;101340.88;5248195;28;20061;-71
2023/12/07 15:11:51;;;;;;;24.90;19.13;;;;;;;2.33;100.00;101352.97;5233890;28;20032;-71
2023/12/07 15:14:22;;;;;;;23.17;18.03;;;;;;;2.26;100.00;101352.22;5245525;28;20500;-72
2023/12/07 15:16:54;;;;;;;24.03;17.53;;;;;;;2.26;100.00;101352.22;5234073;28;20033;-70
2023/12/07 15:19:25;;;;;;;25.07;19.27;;;;;;;2.21;100.00;101338.53;5236272;28;20057;-71
2023/12/07 15:21:57;;;;;;;23.23;18.17;;;;;;;2.39;100.00;101341.69;5238836;28;20021;-70
2023/12/07 15:24:28;;;;;;;20.43;17.33;;;;;;;2.28;100.00;101340.13;5238402;28;20017;-71
2023/12/07 15:27:00;;;;;;;21.97;17.43;;;;;;;2.22;100.00;101335.06;5239686;28;20030;-71
2023/12/07 15:29:34;;;;;;;18.77;14.77;;;;;;;2.24;100.00;101337.59;5241113;28;20516;-72
2023/12/07 15:32:05;;;;;;;21.50;16.27;;;;;;;2.24;100.00;101324.69;5242207;28;20475;-71
2023/12/07 15:34:37;;;;;;;20.63;16.37;;;;;;;2.15;100.00;101316.22;5244628;28;20120;-71
2023/12/07 15:37:10;;;;;;;19.07;15.23;;;;;;;2.22;100.00;101313.50;5238412;28;20022;-71
2023/12/07 15:39:42;;;;;;;21.70;16.67;;;;;;;2.16;100.00;101306.75;5245574;28;20041;-70
2023/12/07 15:42:14;;;;;;;20.07;17.27;;;;;;;2.18;100.00;101308.41;5237254;28;20022;-70
2023/12/07 15:44:45;;;;;;;21.07;15.63;;;;;;;2.15;100.00;101298.13;5242347;28;20446;-71
2023/12/07 15:47:17;;;;;;;21.33;16.50;;;;;;;2.16;100.00;101283.47;5242895;28;20716;-71
2023/12/07 15:49:49;;;;;;;23.27;15.87;;;;;;;2.10;100.00;101283.56;5239395;28;20356;-71
2023/12/07 15:52:20;;;;;;;20.90;14.50;;;;;;;1.89;100.00;101254.63;5242818;28;20028;-70
2023/12/07 15:54:52;;;;;;;19.37;14.77;;;;;;;2.11;100.00;101283.53;5240287;28;20030;-71
2023/12/07 15:57:23;;;;;;;20.87;15.80;;;;;;;2.09;100.00;101266.38;5238596;28;20388;-72
2023/12/07 15:59:54;;;;;;;22.83;15.77;;;;;;;2.21;100.00;101270.47;5248812;28;20049;-72
2023/12/07 16:02:25;;;;;;;21.77;15.37;;;;;;;2.12;100.00;101271.47;5247995;28;20071;-72
2023/12/07 16:04:57;;;;;;;19.77;14.77;;;;;;;2.07;100.00;101279.31;5251711;28;20436;-72
2023/12/07 16:07:28;;;;;;;22.23;14.80;;;;;;;2.02;100.00;101266.50;5253275;28;20587;-72
2023/12/07 16:09:59;;;;;;;20.13;15.50;;;;;;;2.02;100.00;101263.03;5252426;28;20056;-72
2023/12/07 16:12:31;;;;;;;18.87;14.87;;;;;;;2.05;100.00;101263.84;5253824;28;20100;-72
2023/12/07 16:15:04;;;;;;;19.63;14.13;;;;;;;2.00;100.00;101263.06;5250322;28;20033;-72
2023/12/07 16:17:35;;;;;;;20.50;14.97;;;;;;;1.93;100.00;101252.00;5252850;28;20024;-72
2023/12/07 16:20:10;;;;;;;20.50;14.87;;;;;;;2.04;100.00;101243.22;5253002;28;20027;-72
2023/12/07 16:22:43;;;;;;;19.08;14.55;;;;;;;2.06;100.00;101236.25;5252028;28;20375;-72
2023/12/07 16:25:15;;;;;;;22.70;16.40;;;;;;;2.11;100.00;101234.44;5242991;28;20091;-72
2023/12/07 16:27:46;;;;;;;21.20;14.77;;;;;;;2.05;100.00;101224.22;5245119;28;20037;-72
2023/12/07 16:30:21;;;;;;;20.70;15.00;;;;;;;2.03;100.00;101223.41;5240884;28;20791;-72
2023/12/07 16:32:52;;;;;;;20.73;14.63;;;;;;;1.97;100.00;101221.81;5241097;28;20713;-73
2023/12/07 16:35:23;;;;;;;22.53;16.53;;;;;;;1.97;100.00;101215.78;5234715;28;20056;-74
2023/12/07 16:37:54;;;;;;;17.87;14.00;;;;;;;1.95;100.00;101213.22;5245597;28;20040;-74
2023/12/07 16:40:26;;;;;;;23.00;14.60;;;;;;;2.01;100.00;101209.66;5241371;28;20036;-73
2023/12/07 16:42:58;;;;;;;21.90;15.47;;;;;;;2.00;100.00;101198.47;5234163;28;20029;-73
2023/12/07 16:45:29;;;;;;;23.53;15.87;;;;;;;1.97;100.00;101201.13;5241587;28;20028;-73
2023/12/07 16:48:00;;;;;;;21.27;13.93;;;;;;;2.00;100.00;101203.66;5236670;28;20025;-73
2023/12/07 16:50:31;;;;;;;20.70;15.23;;;;;;;2.01;100.00;101200.19;5239229;28;20499;-74
2023/12/07 16:53:03;;;;;;;19.20;15.47;;;;;;;1.98;100.00;101196.78;5245961;28;20150;-74
2023/12/07 16:55:34;;;;;;;20.07;15.47;;;;;;;1.96;100.00;101194.25;5238046;28;20033;-73
2023/12/07 16:58:05;;;;;;;22.90;16.40;;;;;;;1.97;100.00;101195.09;5234081;28;20028;-73
2023/12/07 17:00:37;;;;;;;21.70;15.70;;;;;;;1.96;100.00;101188.22;5236286;28;20033;-73
2023/12/07 17:03:08;;;;;;;23.77;15.53;;;;;;;1.97;100.00;101188.22;5244955;28;20036;-73
2023/12/07 17:05:43;;;;;;;24.27;16.90;;;;;;;1.95;100.00;101192.56;5240240;28;20108;-73
2023/12/07 17:08:19;;;;;;;20.33;16.35;;;;;;;2.02;100.00;101190.69;5243176;28;20112;-73
2023/12/07 17:10:51;;;;;;;22.37;15.97;;;;;;;2.00;100.00;101184.72;5245523;28;20036;-72
2023/12/07 17:13:22;;;;;;;18.67;14.70;;;;;;;2.02;100.00;101182.94;5244908;28;20021;-73
2023/12/07 17:15:53;;;;;;;24.40;17.93;;;;;;;1.92;100.00;101188.28;5245671;28;20104;-74
2023/12/07 17:18:25;;;;;;;19.23;15.10;;;;;;;1.98;100.00;101189.03;5242046;28;20032;-74
2023/12/07 17:20:56;;;;;;;17.50;13.73;;;;;;;1.98;100.00;101184.75;5242444;28;20036;-76
2023/12/07 17:23:28;;;;;;;18.17;14.33;;;;;;;1.97;100.00;101182.19;5242153;28;20036;-75
2023/12/07 17:25:59;;;;;;;20.90;15.23;;;;;;;1.97;100.00;101188.22;5243832;28;20064;-73
2023/12/07 17:28:31;;;;;;;17.37;14.07;;;;;;;2.03;100.00;101172.59;5233709;28;20044;-71
2023/12/07 17:31:02;;;;;;;18.43;14.70;;;;;;;1.89;100.00;101170.25;5237879;28;20033;-73
2023/12/07 17:33:33;;;;;;;21.27;14.90;;;;;;;1.88;100.00;101155.66;5245136;28;20112;-77
2023/12/07 17:36:05;;;;;;;17.97;14.77;;;;;;;1.78;100.00;101152.34;5250295;28;20060;-74
2023/12/07 17:38:36;;;;;;;18.00;13.87;;;;;;;1.94;100.00;101154.66;5243519;28;20059;-74
2023/12/07 17:41:08;;;;;;;17.17;13.90;;;;;;;1.85;100.00;101160.84;5235888;28;20396;-74
2023/12/07 17:43:39;;;;;;;19.90;14.73;;;;;;;1.80;100.00;101153.19;5277115;28;20698;-73
2023/12/07 17:46:11;;;;;;;20.20;15.50;;;;;;;1.85;100.00;101150.50;5244415;28;20056;-74
2023/12/07 17:48:44;;;;;;;21.97;16.27;;;;;;;1.82;100.00;101155.75;5238536;28;20115;-75
2023/12/07 17:51:16;;;;;;;20.23;15.07;;;;;;;1.76;100.00;101150.69;5240909;28;20021;-77
2023/12/07 17:53:47;;;;;;;18.80;13.17;;;;;;;1.59;100.00;101136.34;5237629;28;20029;-73
2023/12/07 17:56:18;;;;;;;18.40;14.37;;;;;;;1.72;100.00;101138.72;5247475;28;20056;-74
2023/12/07 17:58:50;;;;;;;21.83;13.70;;;;;;;1.70;100.00;101141.31;5245488;28;20088;-73
2023/12/07 18:01:21;;;;;;;18.27;13.20;;;;;;;1.77;100.00;101152.38;5247654;28;20028;-71
2023/12/07 18:03:53;;;;;;;17.63;12.87;;;;;;;1.73;100.00;101155.94;5245181;28;20017;-72
2023/12/07 18:06:27;;;;;;;16.07;11.93;;;;;;;1.83;100.00;101161.78;5246289;28;20049;-74
2023/12/07 18:08:58;;;;;;;15.35;12.07;;;;;;;1.70;100.00;101151.66;5247145;28;20052;-75
2023/12/07 18:11:30;;;;;;;14.73;12.33;;;;;;;1.60;100.00;101153.56;5243436;28;20025;-76
2023/12/07 18:14:04;;;;;;;18.87;12.90;;;;;;;1.63;100.00;101160.38;5248334;28;20060;-73
2023/12/07 18:16:36;;;;;;;19.30;11.90;;;;;;;1.57;100.00;101145.88;5249308;28;20534;-73
2023/12/07 18:19:07;;;;;;;14.53;12.30;;;;;;;1.59;100.00;101136.34;5250355;28;20021;-73
2023/12/07 18:21:38;;;;;;;18.23;10.63;;;;;;;1.54;100.00;101141.59;5252181;28;20056;-72
2023/12/07 18:24:11;;;;;;;17.20;13.07;;;;;;;1.56;100.00;101144.16;5251224;28;20108;-71
2023/12/07 18:26:42;;;;;;;18.10;13.40;;;;;;;1.57;100.00;101138.13;5254539;28;20033;-71
2023/12/07 18:29:14;;;;;;;17.57;13.63;;;;;;;1.49;100.00;101127.91;5249265;28;20090;-72
2023/12/07 18:31:48;;;;;;;17.80;12.47;;;;;;;1.59;100.00;101133.75;5253593;28;20107;-71
2023/12/07 18:34:20;;;;;;;15.90;10.82;;;;;;;1.56;100.00;101131.22;5252611;28;20056;-72
2023/12/07 18:36:51;;;;;;;12.70;10.63;;;;;;;1.58;100.00;101124.31;5243375;28;20064;-72
2023/12/07 18:39:22;;;;;;;16.07;11.20;;;;;;;1.47;100.00;101113.34;5243452;28;20049;-72
2023/12/07 18:41:54;;;;;;;13.50;11.10;;;;;;;1.53;100.00;101113.22;5251876;28;20021;-72
2023/12/07 18:44:25;;;;;;;15.80;11.27;;;;;;;1.49;100.00;101112.41;5251227;28;20406;-72
2023/12/07 18:46:56;;;;;;;15.60;10.57;;;;;;;1.51;100.00;101102.94;5249678;28;20041;-74
2023/12/07 18:49:27;;;;;;;13.27;10.60;;;;;;;1.52;100.00;101098.63;5250825;28;20036;-74
2023/12/07 18:51:59;;;;;;;16.70;11.13;;;;;;;1.55;100.00;101083.91;5252758;28;20535;-73
2023/12/07 18:54:36;;;;;;;15.93;11.37;;;;;;;1.41;100.00;101073.00;5243522;28;20091;-73
2023/12/07 18:57:07;;;;;;;16.23;12.63;;;;;;;1.57;100.00;101089.06;5250587;28;20353;-72
2023/12/07 18:59:38;;;;;;;15.37;10.73;;;;;;;1.49;100.00;101085.75;5254199;28;20028;-71
2023/12/07 19:02:09;;;;;;;15.17;11.20;;;;;;;1.55;100.00;101077.91;5251784;28;20059;-72
2023/12/07 19:04:42;;;;;;;16.03;9.93;;;;;;;1.54;100.00;101077.06;5239113;28;20032;-74
2023/12/07 19:07:14;;;;;;;16.40;11.40;;;;;;;1.69;100.00;101067.31;5239493;28;20125;-74
2023/12/07 19:09:45;;;;;;;13.63;10.00;;;;;;;1.53;100.00;101071.91;5234153;28;20075;-76
2023/12/07 19:12:19;;;;;;;12.70;9.57;;;;;;;1.54;100.00;101073.59;5251049;28;20099;-74
2023/12/07 19:14:50;;;;;;;12.95;10.07;;;;;;;1.55;100.00;101070.16;5239152;28;20025;-74
2023/12/07 19:17:21;;;;;;;14.63;10.33;;;;;;;1.61;100.00;101062.28;5245079;28;20108;-73
2023/12/07 19:19:53;;;;;;;15.73;9.73;;;;;;;1.51;100.00;101045.28;5236498;28;20119;-73
2023/12/07 19:22:24;;;;;;;12.60;10.83;;;;;;;1.52;100.00;101042.66;5247807;28;20020;-72
2023/12/07 19:24:57;;;;;;;13.23;9.67;;;;;;;1.53;100.00;101028.03;5246732;28;20017;-73
2023/12/07 19:27:28;;;;;;;12.50;10.77;;;;;;;1.50;100.00;101015.19;5236549;28;20044;-76
2023/12/07 19:29:59;;;;;;;12.53;9.77;;;;;;;1.65;100.00;101014.88;5240955;28;20392;-74
2023/12/07 19:32:30;;;;;;;12.90;9.00;;;;;;;1.66;100.00;101014.00;5239704;28;20329;-73
2023/12/07 19:35:02;;;;;;;11.20;9.37;;;;;;;1.90;100.00;101008.38;5241702;28;20033;-73
2023/12/07 19:37:35;;;;;;;13.50;8.73;;;;;;;1.73;100.00;100981.16;5234486;28;20571;-76
2023/12/07 19:40:07;;;;;;;10.95;9.38;;;;;;;1.83;100.00;100997.31;5243814;28;20091;-76
2023/12/07 19:42:38;;;;;;;12.83;10.77;;;;;;;1.70;100.00;100970.91;5238415;28;20159;-73
2023/12/07 19:45:10;;;;;;;15.80;10.60;;;;;;;1.73;100.00;100977.75;5232897;28;20431;-73
2023/12/07 19:47:41;;;;;;;12.90;9.47;;;;;;;1.74;100.00;100963.94;5239370;28;20167;-73
2023/12/07 19:50:12;;;;;;;13.57;9.20;;;;;;;1.73;100.00;100954.50;5237704;28;20041;-71
2023/12/07 19:52:47;;;;;;;12.37;9.87;;;;;;;1.65;100.00;100950.34;5247274;28;20029;-73
2023/12/07 19:55:18;;;;;;;11.75;9.57;;;;;;;1.69;100.00;100953.72;5239402;28;20388;-73
2023/12/07 19:57:49;;;;;;;12.97;10.17;;;;;;;1.66;100.00;100951.16;5248613;28;20036;-73
2023/12/07 20:00:22;;;;;;;20.00;14.20;;;;;;;1.71;100.00;100948.50;5251012;28;20028;-73
2023/12/07 20:02:53;;;;;;;13.30;11.03;;;;;;;1.74;100.00;100940.69;5245266;28;20040;-73
2023/12/07 20:05:24;;;;;;;20.77;15.40;;;;;;;1.73;100.00;100941.59;5246975;28;20034;-74
2023/12/07 20:07:55;;;;;;;15.77;11.63;;;;;;;1.69;100.00;100927.88;5250724;28;20045;-73
2023/12/07 20:10:27;;;;;;;13.47;9.43;;;;;;;1.67;100.00;100925.34;5242859;28;20049;-71
2023/12/07 20:12:58;;;;;;;19.33;12.83;;;;;;;1.71;100.00;100927.84;5249659;28;20111;-74
2023/12/07 20:15:30;;;;;;;14.83;10.13;;;;;;;1.80;100.00;100922.47;5247423;28;20460;-74
2023/12/07 20:18:02;;;;;;;18.43;13.00;;;;;;;1.69;100.00;100913.22;5242255;28;20394;-73
2023/12/07 20:20:33;;;;;;;16.30;11.73;;;;;;;1.69;100.00;100896.91;5243220;28;20411;-75
2023/12/07 20:23:05;;;;;;;16.80;11.60;;;;;;;1.67;100.00;100902.09;5237343;28;20028;-74
2023/12/07 20:25:36;;;;;;;15.83;11.30;;;;;;;1.68;100.00;100900.34;5232666;28;20029;-74
2023/12/07 20:28:07;;;;;;;16.57;11.53;;;;;;;1.69;100.00;100882.25;5233419;28;20579;-74
2023/12/07 20:30:39;;;;;;;13.03;10.53;;;;;;;1.71;100.00;100864.13;5245186;28;20480;-74
2023/12/07 20:33:10;;;;;;;13.00;10.10;;;;;;;1.70;100.00;100865.03;5234559;28;20700;-74
2023/12/07 20:35:41;;;;;;;10.73;8.80;;;;;;;1.75;100.00;100883.00;5235801;28;20516;-74
2023/12/07 20:38:15;;;;;;;16.87;11.27;;;;;;;1.80;100.00;100855.31;5233104;28;20026;-74
2023/12/07 20:40:47;;;;;;;20.48;13.75;;;;;;;1.69;100.00;100835.75;5231951;28;20052;-74
2023/12/07 20:43:18;;;;;;;32.97;20.90;;;;;;;1.64;100.00;100832.44;5240313;28;20029;-73
2023/12/07 20:45:49;;;;;;;19.13;14.30;;;;;;;1.68;100.00;100816.00;5236156;28;20029;-74
2023/12/07 20:48:21;;;;;;;16.07;12.07;;;;;;;1.75;100.00;100796.03;5237106;28;20460;-74
2023/12/07 20:50:52;;;;;;;12.83;9.73;;;;;;;1.75;100.00;100792.59;5237341;28;20116;-75
2023/12/07 20:53:23;;;;;;;11.47;9.33;;;;;;;1.65;100.00;100792.84;5238391;28;20036;-73
2023/12/07 20:55:55;;;;;;;14.07;10.67;;;;;;;1.69;100.00;100783.28;5243039;28;20455;-74
2023/12/07 20:58:31;;;;;;;11.50;8.73;;;;;;;1.62;100.00;100774.84;5234786;28;20079;-74
2023/12/07 21:01:03;;;;;;;14.63;11.03;;;;;;;1.64;100.00;100774.81;5242418;28;20484;-74
2023/12/07 21:03:35;;;;;;;11.20;8.63;;;;;;;1.75;100.00;100777.09;5233730;28;20025;-73
2023/12/07 21:06:08;;;;;;;11.60;9.00;;;;;;;1.78;100.00;100782.22;5240429;28;20041;-74
2023/12/07 21:08:39;;;;;;;13.20;10.33;;;;;;;1.73;100.00;100784.06;5251000;28;20036;-74
2023/12/07 21:11:10;;;;;;;9.27;7.93;;;;;;;1.72;100.00;100777.19;5244500;28;20029;-74
2023/12/07 21:13:41;;;;;;;11.53;8.27;;;;;;;1.72;100.00;100764.28;5240724;28;20032;-74
2023/12/07 21:16:13;;;;;;;12.23;9.23;;;;;;;1.65;100.00;100761.84;5246355;28;20028;-71
2023/12/07 21:18:44;;;;;;;12.50;8.53;;;;;;;1.69;100.00;100753.13;5244125;28;20032;-72
2023/12/07 21:21:15;;;;;;;9.43;8.00;;;;;;;1.79;100.00;100747.75;5242504;28;20029;-72
2023/12/07 21:23:47;;;;;;;11.73;7.60;;;;;;;1.71;100.00;100760.84;5235821;28;20112;-73
2023/12/07 21:26:18;;;;;;;11.50;8.90;;;;;;;1.80;100.00;100758.03;5240371;28;20040;-70
2023/12/07 21:28:49;;;;;;;11.60;8.70;;;;;;;1.84;100.00;100761.41;5247332;28;20029;-71
2023/12/07 21:31:21;;;;;;;20.33;9.87;;;;;;;1.77;100.00;100754.69;5257989;28;20506;-70
2023/12/07 21:33:53;;;;;;;10.40;7.93;;;;;;;1.81;100.00;100751.16;5259186;28;20036;-71
2023/12/07 21:36:24;;;;;;;10.73;8.93;;;;;;;1.83;100.00;100739.06;5253534;28;20018;-70
2023/12/07 21:38:55;;;;;;;11.00;9.10;;;;;;;1.77;100.00;100728.88;5246931;28;20507;-71
2023/12/07 21:41:27;;;;;;;11.30;9.13;;;;;;;1.71;100.00;100718.69;5236544;28;20068;-72
2023/12/07 21:43:58;;;;;;;10.17;8.13;;;;;;;1.68;100.00;100715.31;5237766;28;20071;-71
2023/12/07 21:46:29;;;;;;;11.93;8.90;;;;;;;1.74;100.00;100703.13;5236548;28;20026;-71
2023/12/07 21:49:01;;;;;;;13.83;8.60;;;;;;;1.78;100.00;100697.00;5246589;28;20718;-74
2023/12/07 21:51:32;;;;;;;12.20;8.53;;;;;;;1.74;100.00;100677.31;5245082;28;20033;-76
2023/12/07 21:54:03;;;;;;;12.30;9.07;;;;;;;1.78;100.00;100686.69;5235527;28;20079;-72
2023/12/07 21:56:35;;;;;;;14.60;9.53;;;;;;;1.77;100.00;100684.97;5236091;28;20063;-71
2023/12/07 21:59:06;;;;;;;13.67;9.37;;;;;;;1.76;100.00;100685.88;5235321;28;20029;-73
2023/12/07 22:01:37;;;;;;;12.77;9.80;;;;;;;1.47;100.00;100654.72;5236095;28;20029;-72
2023/12/07 22:04:08;;;;;;;12.87;10.03;;;;;;;1.71;100.00;100677.38;5237354;28;20033;-72
2023/12/07 22:06:40;;;;;;;14.53;9.83;;;;;;;1.67;100.00;100677.47;5235597;28;20664;-72
2023/12/07 22:09:11;;;;;;;14.97;10.50;;;;;;;1.66;100.00;100644.78;5271083;28;20033;-70
2023/12/07 22:11:43;;;;;;;15.67;10.87;;;;;;;1.63;100.00;100624.22;5235871;28;20033;-71
2023/12/07 22:14:15;;;;;;;18.37;10.47;;;;;;;1.62;100.00;100638.00;5235965;28;20144;-70
2023/12/07 22:16:46;;;;;;;14.73;10.73;;;;;;;1.65;100.00;100674.06;5234916;28;20532;-70
2023/12/07 22:19:17;;;;;;;16.00;10.40;;;;;;;1.75;100.00;100707.38;5241317;28;20029;-70
2023/12/07 22:21:48;;;;;;;14.50;10.03;;;;;;;1.73;100.00;100711.78;5244083;28;20053;-71
2023/12/07 22:24:20;;;;;;;13.60;10.07;;;;;;;1.63;100.00;100693.06;5237171;28;20026;-75
2023/12/07 22:26:51;;;;;;;13.63;10.53;;;;;;;1.71;100.00;100709.19;5248833;28;20037;-73
2023/12/07 22:29:22;;;;;;;14.10;10.23;;;;;;;1.64;100.00;100690.44;5243772;28;20118;-72
